sensor_id;sensor_type;location;lat;lon;timestamp;P1;durP1;ratioP1;P2;durP2;ratioP2
25015;SDS011;13029;46.286;7.488;2022-08-11T00:01:27;2.97;;;2.20;;
25015;SDS011;13029;46.286;7.488;2022-08-11T00:03:57;6.20;;;2.90;;
25015;SDS011;13029;46.286;7.488;2022-08-11T00:06:28;2.85;;;2.55;;
25015;SDS011;13029;46.286;7.488;2022-08-11T00:08:55;4.60;;;2.50;;
25015;SDS011;13029;46.286;7.488;2022-08-11T00:11:22;5.88;;;2.50;;
25015;SDS011;13029;46.286;7.488;2022-08-11T00:13:57;3.33;;;2.75;;
25015;SDS011;13029;46.286;7.488;2022-08-11T00:16:23;5.40;;;2.38;;
25015;SDS011;13029;46.286;7.488;2022-08-11T00:18:53;2.90;;;2.38;;
25015;SDS011;13029;46.286;7.488;2022-08-11T00:21:20;2.92;;;2.63;;
25015;SDS011;13029;46.286;7.488;2022-08-11T00:23:54;3.50;;;2.80;;
25015;SDS011;13029;46.286;7.488;2022-08-11T00:26:24;3.58;;;2.60;;
25015;SDS011;13029;46.286;7.488;2022-08-11T00:28:51;2.85;;;2.47;;
25015;SDS011;13029;46.286;7.488;2022-08-11T00:31:25;3.30;;;2.65;;
25015;SDS011;13029;46.286;7.488;2022-08-11T00:33:52;3.72;;;2.70;;
25015;SDS011;13029;46.286;7.488;2022-08-11T00:36:19;3.15;;;2.40;;
25015;SDS011;13029;46.286;7.488;2022-08-11T00:38:50;2.97;;;2.40;;
25015;SDS011;13029;46.286;7.488;2022-08-11T00:41:27;2.97;;;2.53;;
25015;SDS011;13029;46.286;7.488;2022-08-11T00:58:09;3.13;;;2.80;;
25015;SDS011;13029;46.286;7.488;2022-08-11T01:18:30;3.25;;;2.45;;
25015;SDS011;13029;46.286;7.488;2022-08-11T01:24:42;4.13;;;2.90;;
25015;SDS011;13029;46.286;7.488;2022-08-11T01:41:53;3.45;;;2.70;;
25015;SDS011;13029;46.286;7.488;2022-08-11T02:10:25;4.18;;;2.72;;
25015;SDS011;13029;46.286;7.488;2022-08-11T02:16:20;4.13;;;3.00;;
25015;SDS011;13029;46.286;7.488;2022-08-11T02:18:54;4.80;;;2.72;;
25015;SDS011;13029;46.286;7.488;2022-08-11T02:21:51;3.28;;;2.70;;
25015;SDS011;13029;46.286;7.488;2022-08-11T02:27:35;5.13;;;2.83;;
25015;SDS011;13029;46.286;7.488;2022-08-11T02:30:06;3.40;;;3.08;;
25015;SDS011;13029;46.286;7.488;2022-08-11T02:32:44;3.33;;;2.70;;
25015;SDS011;13029;46.286;7.488;2022-08-11T02:38:48;3.50;;;3.10;;
25015;SDS011;13029;46.286;7.488;2022-08-11T02:41:35;6.18;;;3.20;;
25015;SDS011;13029;46.286;7.488;2022-08-11T02:57:57;4.53;;;2.92;;
25015;SDS011;13029;46.286;7.488;2022-08-11T03:00:29;3.05;;;2.72;;
25015;SDS011;13029;46.286;7.488;2022-08-11T03:09:16;3.80;;;2.70;;
25015;SDS011;13029;46.286;7.488;2022-08-11T03:15:24;3.85;;;3.35;;
25015;SDS011;13029;46.286;7.488;2022-08-11T03:18:11;4.03;;;2.90;;
25015;SDS011;13029;46.286;7.488;2022-08-11T03:20:50;4.60;;;3.30;;
25015;SDS011;13029;46.286;7.488;2022-08-11T03:23:31;3.22;;;2.92;;
25015;SDS011;13029;46.286;7.488;2022-08-11T03:28:42;3.60;;;3.03;;
25015;SDS011;13029;46.286;7.488;2022-08-11T03:31:26;3.50;;;3.08;;
25015;SDS011;13029;46.286;7.488;2022-08-11T03:34:02;3.58;;;3.20;;
25015;SDS011;13029;46.286;7.488;2022-08-11T03:41:52;5.43;;;3.47;;
25015;SDS011;13029;46.286;7.488;2022-08-11T03:44:38;6.50;;;3.42;;
25015;SDS011;13029;46.286;7.488;2022-08-11T03:50:01;4.15;;;3.22;;
25015;SDS011;13029;46.286;7.488;2022-08-11T04:14:57;4.45;;;3.38;;
25015;SDS011;13029;46.286;7.488;2022-08-11T04:18:04;3.58;;;3.10;;
25015;SDS011;13029;46.286;7.488;2022-08-11T04:35:07;3.67;;;3.28;;
25015;SDS011;13029;46.286;7.488;2022-08-11T04:50:07;10.07;;;4.22;;
25015;SDS011;13029;46.286;7.488;2022-08-11T04:53:12;5.82;;;3.97;;
25015;SDS011;13029;46.286;7.488;2022-08-11T04:56:22;4.80;;;3.70;;
25015;SDS011;13029;46.286;7.488;2022-08-11T05:13:26;4.43;;;3.93;;
25015;SDS011;13029;46.286;7.488;2022-08-11T05:16:17;3.78;;;3.40;;
25015;SDS011;13029;46.286;7.488;2022-08-11T05:19:07;5.75;;;3.65;;
25015;SDS011;13029;46.286;7.488;2022-08-11T05:21:58;6.32;;;3.53;;
25015;SDS011;13029;46.286;7.488;2022-08-11T05:24:43;7.47;;;3.30;;
25015;SDS011;13029;46.286;7.488;2022-08-11T05:30:38;5.38;;;3.45;;
25015;SDS011;13029;46.286;7.488;2022-08-11T05:33:46;4.85;;;3.33;;
25015;SDS011;13029;46.286;7.488;2022-08-11T05:36:32;7.45;;;3.40;;
25015;SDS011;13029;46.286;7.488;2022-08-11T05:39:04;4.05;;;3.40;;
25015;SDS011;13029;46.286;7.488;2022-08-11T05:41:50;4.10;;;3.40;;
25015;SDS011;13029;46.286;7.488;2022-08-11T05:44:40;4.82;;;3.72;;
25015;SDS011;13029;46.286;7.488;2022-08-11T05:47:27;7.72;;;3.70;;
25015;SDS011;13029;46.286;7.488;2022-08-11T05:50:12;4.80;;;3.40;;
25015;SDS011;13029;46.286;7.488;2022-08-11T05:52:58;5.43;;;3.85;;
25015;SDS011;13029;46.286;7.488;2022-08-11T05:55:43;3.47;;;3.17;;
25015;SDS011;13029;46.286;7.488;2022-08-11T05:58:41;6.60;;;3.45;;
25015;SDS011;13029;46.286;7.488;2022-08-11T06:01:09;5.70;;;3.80;;
25015;SDS011;13029;46.286;7.488;2022-08-11T06:03:36;5.07;;;3.88;;
25015;SDS011;13029;46.286;7.488;2022-08-11T06:06:22;4.05;;;3.53;;
25015;SDS011;13029;46.286;7.488;2022-08-11T06:08:49;6.00;;;3.67;;
25015;SDS011;13029;46.286;7.488;2022-08-11T06:11:19;4.65;;;3.53;;
25015;SDS011;13029;46.286;7.488;2022-08-11T06:13:44;5.70;;;3.13;;
25015;SDS011;13029;46.286;7.488;2022-08-11T06:16:10;4.60;;;3.67;;
25015;SDS011;13029;46.286;7.488;2022-08-11T06:18:39;4.15;;;3.28;;
25015;SDS011;13029;46.286;7.488;2022-08-11T06:23:34;5.13;;;3.60;;
25015;SDS011;13029;46.286;7.488;2022-08-11T06:26:04;5.07;;;3.95;;
25015;SDS011;13029;46.286;7.488;2022-08-11T06:28:34;3.90;;;3.42;;
25015;SDS011;13029;46.286;7.488;2022-08-11T06:33:58;8.13;;;3.22;;
25015;SDS011;13029;46.286;7.488;2022-08-11T06:36:39;4.78;;;3.20;;
25015;SDS011;13029;46.286;7.488;2022-08-11T06:41:45;4.05;;;3.35;;
25015;SDS011;13029;46.286;7.488;2022-08-11T06:44:14;6.25;;;3.47;;
25015;SDS011;13029;46.286;7.488;2022-08-11T06:46:45;5.07;;;3.10;;
25015;SDS011;13029;46.286;7.488;2022-08-11T06:49:13;5.38;;;3.42;;
25015;SDS011;13029;46.286;7.488;2022-08-11T06:52:16;6.40;;;3.38;;
25015;SDS011;13029;46.286;7.488;2022-08-11T06:54:51;4.25;;;3.50;;
25015;SDS011;13029;46.286;7.488;2022-08-11T06:57:28;5.75;;;3.00;;
25015;SDS011;13029;46.286;7.488;2022-08-11T07:00:12;7.22;;;3.47;;
25015;SDS011;13029;46.286;7.488;2022-08-11T07:03:06;3.50;;;3.20;;
25015;SDS011;13029;46.286;7.488;2022-08-11T07:05:49;9.23;;;3.60;;
25015;SDS011;13029;46.286;7.488;2022-08-11T07:14:01;6.13;;;3.60;;
25015;SDS011;13029;46.286;7.488;2022-08-11T07:16:46;7.22;;;3.83;;
25015;SDS011;13029;46.286;7.488;2022-08-11T07:19:13;5.53;;;3.40;;
25015;SDS011;13029;46.286;7.488;2022-08-11T07:21:59;5.18;;;3.90;;
25015;SDS011;13029;46.286;7.488;2022-08-11T07:24:52;6.00;;;3.60;;
25015;SDS011;13029;46.286;7.488;2022-08-11T07:27:42;6.85;;;3.97;;
25015;SDS011;13029;46.286;7.488;2022-08-11T07:30:28;8.57;;;3.95;;
25015;SDS011;13029;46.286;7.488;2022-08-11T07:32:56;6.95;;;3.80;;
25015;SDS011;13029;46.286;7.488;2022-08-11T07:35:29;10.48;;;4.00;;
25015;SDS011;13029;46.286;7.488;2022-08-11T07:37:58;6.03;;;3.60;;
25015;SDS011;13029;46.286;7.488;2022-08-11T07:40:25;8.73;;;3.58;;
25015;SDS011;13029;46.286;7.488;2022-08-11T07:42:51;6.22;;;3.50;;
25015;SDS011;13029;46.286;7.488;2022-08-11T07:45:18;6.95;;;3.90;;
25015;SDS011;13029;46.286;7.488;2022-08-11T07:48:02;5.55;;;3.70;;
25015;SDS011;13029;46.286;7.488;2022-08-11T07:50:46;6.22;;;4.00;;
25015;SDS011;13029;46.286;7.488;2022-08-11T07:53:31;9.25;;;4.43;;
25015;SDS011;13029;46.286;7.488;2022-08-11T07:55:58;4.07;;;3.53;;
25015;SDS011;13029;46.286;7.488;2022-08-11T07:58:25;5.05;;;3.70;;
25015;SDS011;13029;46.286;7.488;2022-08-11T08:01:10;7.38;;;3.50;;
25015;SDS011;13029;46.286;7.488;2022-08-11T08:03:54;4.07;;;3.42;;
25015;SDS011;13029;46.286;7.488;2022-08-11T08:06:38;8.60;;;4.00;;
25015;SDS011;13029;46.286;7.488;2022-08-11T08:09:22;11.15;;;3.70;;
25015;SDS011;13029;46.286;7.488;2022-08-11T08:12:07;4.30;;;3.30;;
25015;SDS011;13029;46.286;7.488;2022-08-11T08:14:52;6.53;;;3.58;;
25015;SDS011;13029;46.286;7.488;2022-08-11T08:17:37;5.70;;;3.55;;
25015;SDS011;13029;46.286;7.488;2022-08-11T08:22:44;7.85;;;3.95;;
25015;SDS011;13029;46.286;7.488;2022-08-11T08:25:11;4.45;;;4.05;;
25015;SDS011;13029;46.286;7.488;2022-08-11T08:27:38;3.90;;;3.08;;
25015;SDS011;13029;46.286;7.488;2022-08-11T08:30:04;7.60;;;4.15;;
25015;SDS011;13029;46.286;7.488;2022-08-11T08:32:49;5.38;;;3.70;;
25015;SDS011;13029;46.286;7.488;2022-08-11T08:35:15;6.30;;;3.28;;
25015;SDS011;13029;46.286;7.488;2022-08-11T08:37:41;3.97;;;3.67;;
25015;SDS011;13029;46.286;7.488;2022-08-11T08:40:06;5.22;;;3.30;;
25015;SDS011;13029;46.286;7.488;2022-08-11T08:42:34;5.60;;;3.42;;
25015;SDS011;13029;46.286;7.488;2022-08-11T08:47:36;6.72;;;3.25;;
25015;SDS011;13029;46.286;7.488;2022-08-11T08:50:13;5.65;;;3.50;;
25015;SDS011;13029;46.286;7.488;2022-08-11T08:52:49;5.63;;;3.50;;
25015;SDS011;13029;46.286;7.488;2022-08-11T08:55:17;3.50;;;3.20;;
25015;SDS011;13029;46.286;7.488;2022-08-11T08:57:43;3.55;;;3.25;;
25015;SDS011;13029;46.286;7.488;2022-08-11T09:00:09;4.13;;;3.35;;
25015;SDS011;13029;46.286;7.488;2022-08-11T09:02:35;6.13;;;3.20;;
25015;SDS011;13029;46.286;7.488;2022-08-11T09:05:01;5.35;;;3.08;;
25015;SDS011;13029;46.286;7.488;2022-08-11T09:07:27;5.40;;;2.90;;
25015;SDS011;13029;46.286;7.488;2022-08-11T09:09:55;5.15;;;3.25;;
25015;SDS011;13029;46.286;7.488;2022-08-11T09:12:21;4.07;;;2.90;;
25015;SDS011;13029;46.286;7.488;2022-08-11T09:14:51;6.15;;;3.25;;
25015;SDS011;13029;46.286;7.488;2022-08-11T09:17:39;4.32;;;3.17;;
25015;SDS011;13029;46.286;7.488;2022-08-11T09:22:38;8.60;;;3.40;;
25015;SDS011;13029;46.286;7.488;2022-08-11T09:25:27;4.60;;;3.30;;
25015;SDS011;13029;46.286;7.488;2022-08-11T09:28:13;4.15;;;3.20;;
25015;SDS011;13029;46.286;7.488;2022-08-11T09:30:40;5.25;;;3.28;;
25015;SDS011;13029;46.286;7.488;2022-08-11T09:33:06;7.05;;;3.30;;
25015;SDS011;13029;46.286;7.488;2022-08-11T09:35:34;4.82;;;3.47;;
25015;SDS011;13029;46.286;7.488;2022-08-11T09:38:00;5.03;;;2.92;;
25015;SDS011;13029;46.286;7.488;2022-08-11T09:40:46;3.38;;;3.00;;
25015;SDS011;13029;46.286;7.488;2022-08-11T09:43:14;5.72;;;3.22;;
25015;SDS011;13029;46.286;7.488;2022-08-11T09:46:00;8.48;;;2.90;;
25015;SDS011;13029;46.286;7.488;2022-08-11T09:48:26;6.10;;;2.95;;
25015;SDS011;13029;46.286;7.488;2022-08-11T09:50:54;10.15;;;3.58;;
25015;SDS011;13029;46.286;7.488;2022-08-11T09:53:21;7.45;;;2.90;;
25015;SDS011;13029;46.286;7.488;2022-08-11T09:55:48;14.70;;;3.42;;
25015;SDS011;13029;46.286;7.488;2022-08-11T09:58:14;4.15;;;2.80;;
25015;SDS011;13029;46.286;7.488;2022-08-11T10:00:42;7.03;;;3.13;;
25015;SDS011;13029;46.286;7.488;2022-08-11T10:03:11;6.88;;;3.85;;
25015;SDS011;13029;46.286;7.488;2022-08-11T10:05:55;7.43;;;3.15;;
25015;SDS011;13029;46.286;7.488;2022-08-11T10:08:41;8.43;;;3.35;;
25015;SDS011;13029;46.286;7.488;2022-08-11T10:11:09;7.45;;;3.60;;
25015;SDS011;13029;46.286;7.488;2022-08-11T10:13:38;7.05;;;3.40;;
25015;SDS011;13029;46.286;7.488;2022-08-11T10:16:26;4.88;;;3.45;;
25015;SDS011;13029;46.286;7.488;2022-08-11T10:18:53;6.90;;;3.03;;
25015;SDS011;13029;46.286;7.488;2022-08-11T10:24:00;4.45;;;3.00;;
25015;SDS011;13029;46.286;7.488;2022-08-11T10:26:46;5.10;;;3.00;;
25015;SDS011;13029;46.286;7.488;2022-08-11T10:29:37;2.45;;;2.25;;
25015;SDS011;13029;46.286;7.488;2022-08-11T10:32:23;3.83;;;2.58;;
25015;SDS011;13029;46.286;7.488;2022-08-11T10:35:08;7.00;;;3.22;;
25015;SDS011;13029;46.286;7.488;2022-08-11T10:37:36;4.72;;;2.85;;
25015;SDS011;13029;46.286;7.488;2022-08-11T10:40:03;6.88;;;3.40;;
25015;SDS011;13029;46.286;7.488;2022-08-11T10:42:29;2.72;;;2.50;;
25015;SDS011;13029;46.286;7.488;2022-08-11T10:45:14;8.63;;;2.95;;
25015;SDS011;13029;46.286;7.488;2022-08-11T10:47:58;8.80;;;2.90;;
25015;SDS011;13029;46.286;7.488;2022-08-11T10:50:24;5.13;;;2.60;;
25015;SDS011;13029;46.286;7.488;2022-08-11T10:53:08;5.82;;;2.78;;
25015;SDS011;13029;46.286;7.488;2022-08-11T10:55:53;2.60;;;2.40;;
25015;SDS011;13029;46.286;7.488;2022-08-11T10:58:37;32.50;;;4.68;;
25015;SDS011;13029;46.286;7.488;2022-08-11T11:01:12;3.83;;;2.40;;
25015;SDS011;13029;46.286;7.488;2022-08-11T11:03:40;6.28;;;2.97;;
25015;SDS011;13029;46.286;7.488;2022-08-11T11:06:21;3.83;;;2.50;;
25015;SDS011;13029;46.286;7.488;2022-08-11T11:08:56;6.53;;;3.05;;
25015;SDS011;13029;46.286;7.488;2022-08-11T11:11:25;3.10;;;2.80;;
25015;SDS011;13029;46.286;7.488;2022-08-11T11:14:11;4.45;;;2.75;;
25015;SDS011;13029;46.286;7.488;2022-08-11T11:17:04;2.70;;;2.30;;
25015;SDS011;13029;46.286;7.488;2022-08-11T11:19:33;4.07;;;2.65;;
25015;SDS011;13029;46.286;7.488;2022-08-11T11:22:02;4.30;;;2.40;;
25015;SDS011;13029;46.286;7.488;2022-08-11T11:24:54;3.03;;;2.63;;
25015;SDS011;13029;46.286;7.488;2022-08-11T11:30:20;4.13;;;2.88;;
25015;SDS011;13029;46.286;7.488;2022-08-11T11:33:01;6.88;;;2.72;;
25015;SDS011;13029;46.286;7.488;2022-08-11T11:38:34;8.80;;;2.72;;
25015;SDS011;13029;46.286;7.488;2022-08-11T11:41:00;5.50;;;2.85;;
25015;SDS011;13029;46.286;7.488;2022-08-11T11:43:44;4.55;;;2.75;;
25015;SDS011;13029;46.286;7.488;2022-08-11T11:46:10;3.88;;;2.63;;
25015;SDS011;13029;46.286;7.488;2022-08-11T11:48:37;4.75;;;2.70;;
25015;SDS011;13029;46.286;7.488;2022-08-11T11:51:04;5.50;;;2.00;;
25015;SDS011;13029;46.286;7.488;2022-08-11T11:53:30;3.13;;;2.33;;
25015;SDS011;13029;46.286;7.488;2022-08-11T11:55:56;4.97;;;2.40;;
25015;SDS011;13029;46.286;7.488;2022-08-11T11:58:21;5.13;;;2.50;;
25015;SDS011;13029;46.286;7.488;2022-08-11T12:01:05;4.57;;;2.65;;
25015;SDS011;13029;46.286;7.488;2022-08-11T12:03:40;5.78;;;2.30;;
25015;SDS011;13029;46.286;7.488;2022-08-11T12:06:08;6.43;;;2.47;;
25015;SDS011;13029;46.286;7.488;2022-08-11T12:08:37;7.60;;;2.40;;
25015;SDS011;13029;46.286;7.488;2022-08-11T12:11:04;3.80;;;2.17;;
25015;SDS011;13029;46.286;7.488;2022-08-11T12:13:51;2.92;;;1.90;;
25015;SDS011;13029;46.286;7.488;2022-08-11T12:16:17;4.57;;;1.98;;
25015;SDS011;13029;46.286;7.488;2022-08-11T12:18:44;2.50;;;2.05;;
25015;SDS011;13029;46.286;7.488;2022-08-11T12:21:11;5.15;;;2.15;;
25015;SDS011;13029;46.286;7.488;2022-08-11T12:23:38;4.65;;;2.25;;
25015;SDS011;13029;46.286;7.488;2022-08-11T12:26:23;3.42;;;2.08;;
25015;SDS011;13029;46.286;7.488;2022-08-11T12:29:08;2.95;;;2.53;;
25015;SDS011;13029;46.286;7.488;2022-08-11T12:31:35;5.97;;;2.00;;
25015;SDS011;13029;46.286;7.488;2022-08-11T12:36:29;12.65;;;3.30;;
25015;SDS011;13029;46.286;7.488;2022-08-11T12:38:57;3.55;;;2.35;;
25015;SDS011;13029;46.286;7.488;2022-08-11T12:41:23;4.68;;;2.05;;
25015;SDS011;13029;46.286;7.488;2022-08-11T12:44:08;4.18;;;2.17;;
25015;SDS011;13029;46.286;7.488;2022-08-11T12:46:53;3.72;;;2.00;;
25015;SDS011;13029;46.286;7.488;2022-08-11T12:49:22;4.25;;;2.20;;
25015;SDS011;13029;46.286;7.488;2022-08-11T12:52:07;5.97;;;2.35;;
25015;SDS011;13029;46.286;7.488;2022-08-11T12:54:43;2.30;;;2.10;;
25015;SDS011;13029;46.286;7.488;2022-08-11T12:57:10;3.05;;;1.85;;
25015;SDS011;13029;46.286;7.488;2022-08-11T12:59:56;4.25;;;2.30;;
25015;SDS011;13029;46.286;7.488;2022-08-11T13:02:40;3.35;;;2.10;;
25015;SDS011;13029;46.286;7.488;2022-08-11T13:05:24;3.10;;;2.70;;
25015;SDS011;13029;46.286;7.488;2022-08-11T13:07:49;2.78;;;2.22;;
25015;SDS011;13029;46.286;7.488;2022-08-11T13:10:16;6.00;;;2.42;;
25015;SDS011;13029;46.286;7.488;2022-08-11T13:13:01;2.50;;;2.30;;
25015;SDS011;13029;46.286;7.488;2022-08-11T13:15:28;3.65;;;2.30;;
25015;SDS011;13029;46.286;7.488;2022-08-11T13:17:53;5.15;;;2.50;;
25015;SDS011;13029;46.286;7.488;2022-08-11T13:20:21;5.30;;;2.75;;
25015;SDS011;13029;46.286;7.488;2022-08-11T13:22:48;3.53;;;2.20;;
25015;SDS011;13029;46.286;7.488;2022-08-11T13:25:15;3.00;;;2.20;;
25015;SDS011;13029;46.286;7.488;2022-08-11T13:27:45;3.00;;;1.90;;
25015;SDS011;13029;46.286;7.488;2022-08-11T13:30:12;3.45;;;2.50;;
25015;SDS011;13029;46.286;7.488;2022-08-11T13:32:57;5.05;;;2.53;;
25015;SDS011;13029;46.286;7.488;2022-08-11T13:35:23;2.70;;;2.30;;
25015;SDS011;13029;46.286;7.488;2022-08-11T13:37:49;6.10;;;2.70;;
25015;SDS011;13029;46.286;7.488;2022-08-11T13:40:15;3.17;;;2.60;;
25015;SDS011;13029;46.286;7.488;2022-08-11T13:42:42;3.42;;;2.25;;
25015;SDS011;13029;46.286;7.488;2022-08-11T13:45:08;2.78;;;2.28;;
25015;SDS011;13029;46.286;7.488;2022-08-11T13:47:35;3.50;;;2.40;;
25015;SDS011;13029;46.286;7.488;2022-08-11T13:50:01;2.40;;;2.20;;
25015;SDS011;13029;46.286;7.488;2022-08-11T13:52:26;6.75;;;2.33;;
25015;SDS011;13029;46.286;7.488;2022-08-11T13:54:52;3.95;;;2.70;;
25015;SDS011;13029;46.286;7.488;2022-08-11T13:57:18;3.63;;;2.17;;
25015;SDS011;13029;46.286;7.488;2022-08-11T13:59:45;3.03;;;2.42;;
25015;SDS011;13029;46.286;7.488;2022-08-11T14:02:12;2.95;;;2.40;;
25015;SDS011;13029;46.286;7.488;2022-08-11T14:04:42;4.03;;;2.25;;
25015;SDS011;13029;46.286;7.488;2022-08-11T14:07:10;3.55;;;2.70;;
25015;SDS011;13029;46.286;7.488;2022-08-11T14:09:38;2.92;;;2.63;;
25015;SDS011;13029;46.286;7.488;2022-08-11T14:12:07;4.18;;;2.45;;
25015;SDS011;13029;46.286;7.488;2022-08-11T14:15:04;5.70;;;2.60;;
25015;SDS011;13029;46.286;7.488;2022-08-11T14:17:32;6.97;;;2.70;;
25015;SDS011;13029;46.286;7.488;2022-08-11T14:19:57;8.27;;;2.60;;
25015;SDS011;13029;46.286;7.488;2022-08-11T14:22:26;3.55;;;2.40;;
25015;SDS011;13029;46.286;7.488;2022-08-11T14:24:52;4.65;;;2.95;;
25015;SDS011;13029;46.286;7.488;2022-08-11T14:27:17;4.22;;;2.33;;
25015;SDS011;13029;46.286;7.488;2022-08-11T14:29:43;6.18;;;2.50;;
25015;SDS011;13029;46.286;7.488;2022-08-11T14:32:10;5.85;;;2.17;;
25015;SDS011;13029;46.286;7.488;2022-08-11T14:34:38;3.13;;;2.75;;
25015;SDS011;13029;46.286;7.488;2022-08-11T14:37:12;5.25;;;2.60;;
25015;SDS011;13029;46.286;7.488;2022-08-11T14:39:40;8.23;;;2.95;;
25015;SDS011;13029;46.286;7.488;2022-08-11T14:42:07;4.85;;;2.40;;
25015;SDS011;13029;46.286;7.488;2022-08-11T14:44:56;4.05;;;3.17;;
25015;SDS011;13029;46.286;7.488;2022-08-11T14:47:44;4.78;;;2.60;;
25015;SDS011;13029;46.286;7.488;2022-08-11T14:50:13;4.65;;;2.60;;
25015;SDS011;13029;46.286;7.488;2022-08-11T14:52:42;3.78;;;2.70;;
25015;SDS011;13029;46.286;7.488;2022-08-11T14:57:54;4.25;;;2.80;;
25015;SDS011;13029;46.286;7.488;2022-08-11T15:00:20;4.22;;;2.45;;
25015;SDS011;13029;46.286;7.488;2022-08-11T15:02:45;3.22;;;2.50;;
25015;SDS011;13029;46.286;7.488;2022-08-11T15:05:30;3.35;;;2.67;;
25015;SDS011;13029;46.286;7.488;2022-08-11T15:07:56;4.28;;;2.33;;
25015;SDS011;13029;46.286;7.488;2022-08-11T15:10:23;2.92;;;2.45;;
25015;SDS011;13029;46.286;7.488;2022-08-11T15:12:48;4.90;;;3.35;;
25015;SDS011;13029;46.286;7.488;2022-08-11T15:15:14;2.85;;;2.65;;
25015;SDS011;13029;46.286;7.488;2022-08-11T15:17:59;2.53;;;2.33;;
25015;SDS011;13029;46.286;7.488;2022-08-11T15:20:27;7.32;;;3.20;;
25015;SDS011;13029;46.286;7.488;2022-08-11T15:23:11;3.15;;;2.60;;
25015;SDS011;13029;46.286;7.488;2022-08-11T15:26:07;12.75;;;3.00;;
25015;SDS011;13029;46.286;7.488;2022-08-11T15:28:38;7.45;;;3.20;;
25015;SDS011;13029;46.286;7.488;2022-08-11T15:31:25;5.57;;;2.50;;
25015;SDS011;13029;46.286;7.488;2022-08-11T15:34:11;310.77;;;25.25;;
25015;SDS011;13029;46.286;7.488;2022-08-11T15:36:58;34.97;;;5.20;;
25015;SDS011;13029;46.286;7.488;2022-08-11T15:42:33;3.33;;;2.30;;
25015;SDS011;13029;46.286;7.488;2022-08-11T15:45:21;2.55;;;2.33;;
25015;SDS011;13029;46.286;7.488;2022-08-11T15:48:07;4.03;;;2.60;;
25015;SDS011;13029;46.286;7.488;2022-08-11T15:50:36;3.72;;;2.67;;
25015;SDS011;13029;46.286;7.488;2022-08-11T15:55:32;4.75;;;2.47;;
25015;SDS011;13029;46.286;7.488;2022-08-11T15:58:01;3.92;;;2.40;;
25015;SDS011;13029;46.286;7.488;2022-08-11T16:00:47;3.63;;;2.70;;
25015;SDS011;13029;46.286;7.488;2022-08-11T16:03:34;4.53;;;2.08;;
25015;SDS011;13029;46.286;7.488;2022-08-11T16:06:22;3.45;;;2.30;;
25015;SDS011;13029;46.286;7.488;2022-08-11T16:08:48;4.05;;;2.42;;
25015;SDS011;13029;46.286;7.488;2022-08-11T16:11:14;5.70;;;2.47;;
25015;SDS011;13029;46.286;7.488;2022-08-11T16:13:40;2.42;;;2.10;;
25015;SDS011;13029;46.286;7.488;2022-08-11T16:16:07;4.28;;;2.30;;
25015;SDS011;13029;46.286;7.488;2022-08-11T16:18:43;2.60;;;2.40;;
25015;SDS011;13029;46.286;7.488;2022-08-11T16:21:13;2.50;;;2.17;;
25015;SDS011;13029;46.286;7.488;2022-08-11T16:23:42;2.50;;;2.00;;
25015;SDS011;13029;46.286;7.488;2022-08-11T16:26:09;4.88;;;2.20;;
25015;SDS011;13029;46.286;7.488;2022-08-11T16:28:35;3.33;;;2.47;;
25015;SDS011;13029;46.286;7.488;2022-08-11T16:31:02;3.88;;;2.50;;
25015;SDS011;13029;46.286;7.488;2022-08-11T16:33:33;3.42;;;2.45;;
25015;SDS011;13029;46.286;7.488;2022-08-11T16:35:58;5.80;;;2.10;;
25015;SDS011;13029;46.286;7.488;2022-08-11T16:38:43;2.58;;;2.08;;
25015;SDS011;13029;46.286;7.488;2022-08-11T16:41:16;3.60;;;2.55;;
25015;SDS011;13029;46.286;7.488;2022-08-11T16:44:06;3.13;;;2.00;;
25015;SDS011;13029;46.286;7.488;2022-08-11T16:46:51;3.42;;;2.50;;
25015;SDS011;13029;46.286;7.488;2022-08-11T16:49:32;2.47;;;2.28;;
25015;SDS011;13029;46.286;7.488;2022-08-11T16:52:00;3.50;;;2.80;;
25015;SDS011;13029;46.286;7.488;2022-08-11T16:54:32;3.25;;;2.35;;
25015;SDS011;13029;46.286;7.488;2022-08-11T16:59:44;2.38;;;2.17;;
25015;SDS011;13029;46.286;7.488;2022-08-11T17:02:16;3.08;;;2.22;;
25015;SDS011;13029;46.286;7.488;2022-08-11T17:05:02;3.63;;;2.55;;
25015;SDS011;13029;46.286;7.488;2022-08-11T17:07:52;4.28;;;2.70;;
25015;SDS011;13029;46.286;7.488;2022-08-11T17:10:39;6.28;;;2.28;;
25015;SDS011;13029;46.286;7.488;2022-08-11T17:13:33;3.90;;;2.67;;
25015;SDS011;13029;46.286;7.488;2022-08-11T17:16:00;4.90;;;2.83;;
25015;SDS011;13029;46.286;7.488;2022-08-11T17:18:30;3.65;;;2.35;;
25015;SDS011;13029;46.286;7.488;2022-08-11T17:21:04;5.65;;;2.90;;
25015;SDS011;13029;46.286;7.488;2022-08-11T17:23:30;4.60;;;3.15;;
25015;SDS011;13029;46.286;7.488;2022-08-11T17:26:43;3.17;;;2.72;;
25015;SDS011;13029;46.286;7.488;2022-08-11T17:29:23;3.83;;;2.50;;
25015;SDS011;13029;46.286;7.488;2022-08-11T17:31:51;5.20;;;2.88;;
25015;SDS011;13029;46.286;7.488;2022-08-11T17:34:35;4.20;;;2.97;;
25015;SDS011;13029;46.286;7.488;2022-08-11T17:37:20;8.23;;;3.45;;
25015;SDS011;13029;46.286;7.488;2022-08-11T17:39:45;4.03;;;3.60;;
25015;SDS011;13029;46.286;7.488;2022-08-11T17:42:12;5.10;;;3.78;;
25015;SDS011;13029;46.286;7.488;2022-08-11T17:44:57;6.80;;;4.00;;
25015;SDS011;13029;46.286;7.488;2022-08-11T17:47:41;4.00;;;3.60;;
25015;SDS011;13029;46.286;7.488;2022-08-11T17:50:26;5.63;;;3.38;;
25015;SDS011;13029;46.286;7.488;2022-08-11T17:52:53;5.53;;;3.85;;
25015;SDS011;13029;46.286;7.488;2022-08-11T17:55:37;4.65;;;3.53;;
25015;SDS011;13029;46.286;7.488;2022-08-11T17:58:21;4.60;;;3.70;;
25015;SDS011;13029;46.286;7.488;2022-08-11T18:01:05;5.35;;;3.95;;
25015;SDS011;13029;46.286;7.488;2022-08-11T18:03:32;4.95;;;3.80;;
25015;SDS011;13029;46.286;7.488;2022-08-11T18:06:03;5.15;;;4.47;;
25015;SDS011;13029;46.286;7.488;2022-08-11T18:08:30;9.10;;;4.50;;
25015;SDS011;13029;46.286;7.488;2022-08-11T18:11:16;8.75;;;4.72;;
25015;SDS011;13029;46.286;7.488;2022-08-11T18:14:05;6.85;;;5.20;;
25015;SDS011;13029;46.286;7.488;2022-08-11T18:16:50;7.65;;;5.57;;
25015;SDS011;13029;46.286;7.488;2022-08-11T18:19:34;7.18;;;5.25;;
25015;SDS011;13029;46.286;7.488;2022-08-11T18:22:22;9.48;;;5.93;;
25015;SDS011;13029;46.286;7.488;2022-08-11T18:25:11;8.60;;;5.88;;
25015;SDS011;13029;46.286;7.488;2022-08-11T18:27:57;7.20;;;5.60;;
25015;SDS011;13029;46.286;7.488;2022-08-11T18:30:42;6.95;;;6.25;;
25015;SDS011;13029;46.286;7.488;2022-08-11T18:33:36;8.60;;;6.60;;
25015;SDS011;13029;46.286;7.488;2022-08-11T18:36:26;8.70;;;6.50;;
25015;SDS011;13029;46.286;7.488;2022-08-11T18:39:13;7.97;;;7.18;;
25015;SDS011;13029;46.286;7.488;2022-08-11T18:41:58;10.07;;;8.20;;
25015;SDS011;13029;46.286;7.488;2022-08-11T18:44:44;11.13;;;8.70;;
25015;SDS011;13029;46.286;7.488;2022-08-11T18:47:30;10.85;;;9.40;;
25015;SDS011;13029;46.286;7.488;2022-08-11T18:50:15;12.60;;;9.27;;
25015;SDS011;13029;46.286;7.488;2022-08-11T18:53:00;10.40;;;9.02;;
25015;SDS011;13029;46.286;7.488;2022-08-11T18:55:44;13.13;;;10.27;;
25015;SDS011;13029;46.286;7.488;2022-08-11T18:58:30;11.13;;;9.93;;
25015;SDS011;13029;46.286;7.488;2022-08-11T19:01:15;11.73;;;10.27;;
25015;SDS011;13029;46.286;7.488;2022-08-11T19:04:01;11.30;;;9.77;;
25015;SDS011;13029;46.286;7.488;2022-08-11T19:06:46;15.30;;;9.85;;
25015;SDS011;13029;46.286;7.488;2022-08-11T19:09:31;13.35;;;10.30;;
25015;SDS011;13029;46.286;7.488;2022-08-11T19:12:18;12.55;;;9.93;;
25015;SDS011;13029;46.286;7.488;2022-08-11T19:15:02;12.93;;;10.68;;
25015;SDS011;13029;46.286;7.488;2022-08-11T19:17:48;17.10;;;11.02;;
25015;SDS011;13029;46.286;7.488;2022-08-11T19:20:32;12.52;;;11.23;;
25015;SDS011;13029;46.286;7.488;2022-08-11T19:23:18;12.05;;;10.85;;
25015;SDS011;13029;46.286;7.488;2022-08-11T19:26:06;12.70;;;10.55;;
25015;SDS011;13029;46.286;7.488;2022-08-11T19:28:50;13.43;;;10.82;;